• Join FlightAware (Why Join?)
  • Login
  • US Flag 
Rudolph Flight #1: Arrived! 
08:42PM EST


 

Airport Tracker/Info


-or-


 

Live Flight TrackerFlight Track Log ✈ N929D ✈ 26-Apr-2013 ✈ KHXD - KXLL

Flight Track Log - Related Links

Times and Time Zones

All times are in EDT time to prevent confusion due to time zone crossing. See the N929D flight status page for this flight to view local times or setup timezone preferences in your user account.

Time Position Orientation Groundspeed Altitude Reporting Facility
EDT Latitude Longitude Course Direction KTS MPH feet Rate Location/Type
02:06PM 32.4362 -80.5436 26° Northeast  Level FlightAware Approximate
02:07PM 32.4812 -80.5179 26° Northeast  Level FlightAware Approximate
02:08PM 32.5248 -80.4890 29° Northeast  Level FlightAware Approximate
02:09PM 32.5683 -80.4600 29° Northeast  Level FlightAware Approximate
02:10PM 32.6121 -80.4316 28° Northeast  Level FlightAware Approximate
02:11PM 32.6561 -80.4036 28° Northeast  Level FlightAware Approximate
02:12PM 32.7001 -80.3755 28° Northeast  Level FlightAware Approximate
02:13PM 32.7441 -80.3475 28° Northeast  Level FlightAware Approximate
02:14PM 32.7881 -80.3193 28° Northeast  Level FlightAware Approximate
02:15PM 32.8320 -80.2912 28° Northeast  Level FlightAware Approximate
02:16PM 32.8760 -80.2630 28° Northeast  Level FlightAware Approximate
02:17PM 32.9199 -80.2348 28° Northeast  Level FlightAware Approximate
02:18PM 32.9639 -80.2066 28° Northeast  Level FlightAware Approximate
02:19PM 33.0076 -80.1779 31° Northeast  Level FlightAware Approximate
02:20PM 33.0506 -80.1477 31° Northeast  Level FlightAware Approximate
02:21PM 33.0936 -80.1173 31° Northeast  Level FlightAware Approximate
02:22PM 33.1366 -80.0870 31° Northeast  Level FlightAware Approximate
02:23PM 33.1795 -80.0566 31° Northeast  Level FlightAware Approximate
02:24PM 33.2225 -80.0262 31° Northeast  Level FlightAware Approximate
02:25PM 33.2654 -79.9957 31° Northeast  Level FlightAware Approximate
02:26PM 33.3083 -79.9652 31° Northeast  Level FlightAware Approximate
02:27PM 33.3512 -79.9347 31° Northeast  Level FlightAware Approximate
02:28PM 33.3941 -79.9042 31° Northeast  Level FlightAware Approximate
02:29PM 33.4381 -79.8757 28° Northeast  Level FlightAware Approximate
02:30PM 33.4822 -79.8476 28° Northeast  Level FlightAware Approximate
02:31PM 33.5262 -79.8195 28° Northeast  Level FlightAware Approximate
02:32PM 33.5703 -79.7914 28° Northeast  Level FlightAware Approximate
02:33PM 33.6144 -79.7632 28° Northeast  Level FlightAware Approximate
02:34PM 33.6584 -79.7350 28° Northeast  Level FlightAware Approximate
02:35PM 33.7025 -79.7067 28° Northeast  Level FlightAware Approximate
02:36PM 33.7465 -79.6785 28° Northeast  Level FlightAware Approximate
02:37PM 33.7905 -79.6501 28° Northeast  Level FlightAware Approximate
02:38PM 33.8343 -79.6212 30° Northeast  Level FlightAware Approximate
02:39PM 33.8776 -79.5913 30° Northeast  Level FlightAware Approximate
02:40PM 33.9209 -79.5614 30° Northeast  Level FlightAware Approximate
02:41PM 33.9642 -79.5315 30° Northeast  Level FlightAware Approximate
02:42PM 34.0075 -79.5015 30° Northeast  Level FlightAware Approximate
02:43PM 34.0508 -79.4715 30° Northeast  Level FlightAware Approximate
02:44PM 34.0941 -79.4415 30° Northeast  Level FlightAware Approximate
02:45PM 34.1374 -79.4115 30° Northeast  Level FlightAware Approximate
02:46PM 34.1807 -79.3814 30° Northeast  Level FlightAware Approximate
02:47PM 34.2239 -79.3512 30° Northeast  Level FlightAware Approximate
02:48PM 34.2672 -79.3211 30° Northeast  Level FlightAware Approximate
02:49PM 34.3105 -79.2909 30° Northeast  Level FlightAware Approximate
02:50PM 34.3537 -79.2607 30° Northeast  Level FlightAware Approximate
02:51PM 34.3969 -79.2305 30° Northeast  Level FlightAware Approximate
02:52PM 34.4403 -79.2004 30° Northeast  Level FlightAware Approximate
02:53PM 34.4837 -79.1705 30° Northeast  Level FlightAware Approximate
02:54PM 34.5271 -79.1406 30° Northeast  Level FlightAware Approximate
02:55PM 34.5705 -79.1107 30° Northeast  Level FlightAware Approximate
02:56PM 34.6139 -79.0807 30° Northeast  Level FlightAware Approximate
02:57PM 34.6573 -79.0507 30° Northeast  Level FlightAware Approximate
02:58PM 34.7007 -79.0207 30° Northeast  Level FlightAware Approximate
02:59PM 34.7441 -78.9906 30° Northeast  Level FlightAware Approximate
03:00PM 34.7874 -78.9605 30° Northeast  Level FlightAware Approximate
03:01PM 34.8308 -78.9304 30° Northeast  Level FlightAware Approximate
03:02PM 34.8741 -78.9002 30° Northeast  Level FlightAware Approximate
03:03PM 34.9175 -78.8700 30° Northeast  Level FlightAware Approximate
03:04PM 34.9608 -78.8398 30° Northeast  Level FlightAware Approximate
03:05PM 35.0042 -78.8095 30° Northeast  Level FlightAware Approximate
03:06PM 35.0475 -78.7792 30° Northeast  Level FlightAware Approximate
03:06PM 35.1383 -78.7339 30° Northeast 192 221 7,100  Level Washington Center
03:07PM 35.0908 -78.7489 30° Northeast  Level FlightAware Approximate
03:07PM 35.1831 -78.7025 30° Northeast 192 221 7,100  Level Washington Center
03:08PM 35.1341 -78.7185 30° Northeast  Level FlightAware Approximate
03:08PM 35.2319 -78.6689 29° Northeast 192 221 7,100  Level Washington Center
03:09PM 35.1774 -78.6881 30° Northeast  Level FlightAware Approximate
03:09PM 35.2744 -78.6347 33° Northeast 189 217 7,100  Level Washington Center
03:10PM 35.2207 -78.6577 30° Northeast  Level FlightAware Approximate
03:10PM 35.3231 -78.6061 26° Northeast 189 217 7,200  Level Washington Center
03:11PM 35.2640 -78.6273 30° Northeast  Level FlightAware Approximate
03:11PM 35.3678 -78.5722 32° Northeast 191 220 7,100  Level Washington Center
03:12PM 35.4444 -78.5139 32° Northeast 193 222 7,100  Level Washington Center
03:14PM 35.4997 -78.4725 31° Northeast 198 228 7,200  Climbing Washington Center
03:15PM 35.5442 -78.4408 30° Northeast 194 223 7,200  Level Washington Center
03:15PM 35.5908 -78.4119 27° Northeast 193 222 7,300 240 Climbing Washington Center
03:17PM 35.6311 -78.3800 33° Northeast 176 203 7,700 360 Climbing Washington Center
03:17PM 35.6544 -78.3631 31° Northeast 178 205 7,900 420 Climbing Washington Center
03:17PM 35.6694 -78.3533 28° Northeast 174 200 8,100 480 Climbing Washington Center
03:18PM 35.6969 -78.3339 30° Northeast 178 205 8,400 420 Climbing Washington Center
03:19PM 35.7267 -78.3117 31° Northeast 164 189 8,700 300 Climbing Washington Center
03:20PM 35.7797 -78.2753 29° Northeast 185 213 9,100 120 Climbing Washington Center
03:21PM 35.8242 -78.2458 28° Northeast 185 213 9,000  Descending Washington Center
03:22PM 35.8728 -78.2117 30° Northeast 185 213 9,100  Climbing Washington Center
03:23PM 35.9133 -78.1797 33° Northeast 185 213 9,100  Level Washington Center
03:24PM 35.9642 -78.1428 30° Northeast 191 220 9,100  Level Washington Center
03:25PM 36.0128 -78.1136 26° Northeast 191 220 9,100  Level Washington Center
03:26PM 36.0614 -78.0817 28° Northeast 186 214 9,100  Level Washington Center
03:27PM 36.1100 -78.0550 24° Northeast 186 214 9,100  Level Washington Center
03:28PM 36.1564 -78.0206 31° Northeast 186 214 9,100  Level Washington Center
03:29PM 36.2050 -77.9911 26° Northeast 181 208 9,100  Level Washington Center
03:30PM 36.2494 -77.9564 32° Northeast 181 208 9,100  Level Washington Center
03:31PM 36.2961 -77.9242 29° Northeast 181 208 9,100  Level Washington Center
03:32PM 36.3428 -77.8922 29° Northeast 181 208 9,100  Level Washington Center
03:33PM 36.3892 -77.8625 27° Northeast 181 208 9,100  Level Washington Center
03:34PM 36.4292 -77.8328 31° Northeast 181 208 9,100  Level Washington Center
03:35PM 36.4758 -77.8031 27° Northeast 181 208 9,100  Level Washington Center
03:36PM 36.5222 -77.7733 27° Northeast 181 208 9,100  Level Washington Center
03:37PM 36.5728 -77.7411 27° Northeast 181 208 9,100  Level Washington Center
03:38PM 36.6192 -77.7114 27° Northeast 181 208 9,100  Level Washington Center
03:39PM 36.6658 -77.6739 33° Northeast 181 208 9,100  Level Washington Center
03:40PM 36.7122 -77.6389 31° Northeast 181 208 9,100  Level Washington Center
03:41PM 36.7589 -77.6089 27° Northeast 181 208 9,100  Level Washington Center
03:42PM 36.8053 -77.5789 27° Northeast 181 208 9,100  Level Washington Center
03:43PM 36.8558 -77.5439 29° Northeast 187 215 9,100  Level Washington Center
03:44PM 36.9022 -77.5114 29° Northeast 187 215 9,100  Level Washington Center
03:45PM 36.9467 -77.4786 31° Northeast 187 215 9,100  Level Washington Center
03:46PM 36.9992 -77.4436 28° Northeast 187 215 9,100  Level Washington Center
03:47PM 37.0478 -77.4108 28° Northeast 187 215 9,100  Level Washington Center
03:48PM 37.0942 -77.3781 29° Northeast 187 215 9,100  Level Washington Center
03:49PM 37.1406 -77.3453 29° Northeast 187 215 9,100  Level Washington Center
03:50PM 37.1911 -77.3125 27° Northeast 187 215 9,100  Level Washington Center
03:51PM 37.2375 -77.2797 29° Northeast 187 215 9,100  Level Washington Center
03:53PM 37.3667 -77.2000 26° Northeast 201 231 9,100  Level Potomac TRACON
03:54PM 37.3786 -77.1783 55° Northeast 201 231 9,100  Level Washington Center
03:55PM 37.4206 -77.1531 26° Northeast 201 231 9,100  Level Washington Center
03:56PM 37.4628 -77.1225 30° Northeast 201 231 9,100  Level Washington Center
03:57PM 37.5153 -77.0842 30° Northeast 195 224 9,100  Level Washington Center
03:58PM 37.5594 -77.0536 29° Northeast 195 224 9,100  Level Washington Center
03:59PM 37.6058 -77.0178 31° Northeast 200 230 9,100  Level Washington Center
04:00PM 37.6606 -76.9794 29° Northeast 200 230 9,100 -60 Level Washington Center
04:01PM 37.7028 -76.9408 36° Northeast 206 237 9,000  Descending Washington Center
04:02PM 37.7097 -76.8703 83° East 216 249 9,100  Climbing Washington Center
04:03PM 37.7208 -76.7969 79° East 216 249 9,000  Descending Washington Center
04:04PM 37.7733 -76.7739 19° North 204 235 9,100  Climbing Washington Center
04:05PM 37.8256 -76.7592 13° North 194 223 9,100  Level Washington Center
04:06PM 37.8756 -76.7467 11° North 184 212 9,100  Level Washington Center
04:07PM 37.9258 -76.7317 13° North 184 212 9,100  Level Washington Center
04:08PM 37.9761 -76.7139 16° North 184 212 9,100  Level Washington Center
04:09PM 38.0242 -76.6964 16° North 184 212 9,100 -120 Level Washington Center
04:10PM 38.0681 -76.6836 13° North 188 216 8,900 -360 Descending Washington Center
04:10PM 38.0892 -76.6733 21° North 191 220 8,700 -480 Descending Washington Center
04:11PM 38.1206 -76.6397 40° Northeast 184 212 8,400 -420 Descending Washington Center
04:11PM 38.1292 -76.6239 55° Northeast 222 255 8,300 -540 Descending Washington Center
04:12PM 38.1503 -76.5739 62° Northeast 184 212 7,900 -480 Descending Washington Center
04:12PM 38.1608 -76.5636 37° Northeast 220 253 7,800 -420 Descending Washington Center
04:13PM 38.1925 -76.5192 48° Northeast 200 230 7,500 -540 Descending Washington Center
04:13PM 38.2072 -76.5061 35° Northeast 213 245 7,300 -420 Descending Washington Center
04:14PM 38.2325 -76.4667 51° Northeast 205 236 7,100 -300 Descending Washington Center
04:14PM 38.2472 -76.4536 35° Northeast 209 241 7,000 -120 Descending Washington Center
04:15PM 38.2747 -76.4169 46° Northeast 205 236 7,000  Level Washington Center
04:15PM 38.2892 -76.4064 30° Northeast 209 241 7,000  Level Washington Center
04:16PM 38.3167 -76.3778 39° Northeast 200 230 7,000  Level Washington Center
04:16PM 38.3356 -76.3647 28° Northeast 195 224 7,000  Level Washington Center
04:17PM 38.3628 -76.3436 31° Northeast 187 215 7,000  Level Washington Center
04:17PM 38.3919 -76.3150 38° Northeast 192 221 7,000  Level Washington Center
04:18PM 38.4067 -76.3017 35° Northeast 187 215 7,000  Level Washington Center
04:18PM 38.4278 -76.2808 38° Northeast 198 228 7,000  Level Washington Center
04:19PM 38.4486 -76.2597 38° Northeast 187 215 7,000  Level Washington Center
04:20PM 38.5333 -76.1833 35° Northeast 203 234 7,000  Level Potomac TRACON
04:21PM 38.5833 -76.1333 38° Northeast 203 234 7,000  Level Potomac TRACON
04:22PM 38.6167 -76.1000 38° Northeast 194 223 7,000  Level Potomac TRACON
04:23PM 38.6667 -76.0500 38° Northeast 202 232 7,000  Level Potomac TRACON
04:24PM 38.7167 -76.0167 27° Northeast 195 224 7,000  Level Potomac TRACON
04:25PM 38.7667 -75.9833 27° Northeast 196 226 7,000  Level Potomac TRACON
04:27PM 38.8167 -75.9667 15° North 194 223 7,000  Level Potomac TRACON
04:28PM 38.8667 -75.9500 15° North 189 217 7,000  Level Potomac TRACON
04:29PM 38.9167 -75.9333 15° North 191 220 7,000 -180 Level Potomac TRACON
04:30PM 38.9667 -75.9167 15° North 193 222 6,700 -240 Descending Potomac TRACON
04:32PM 39.1000 -75.8500 21° North 203 234 6,200 -240 Descending Philadelphia TRACON
04:33PM 39.1500 -75.8333 14° North 204 235 6,000 -240 Descending Philadelphia TRACON
04:34PM 39.2167 -75.8167 11° North 202 232 5,800 -240 Descending Philadelphia TRACON
04:35PM 39.2667 -75.7833 27° Northeast 199 229 5,600 -300 Descending Philadelphia TRACON
04:36PM 39.3167 -75.7667 14° North 200 230 5,300 -300 Descending Philadelphia TRACON
04:37PM 39.3667 -75.7500 14° North 193 222 5,100 -180 Descending Philadelphia TRACON
04:38PM 39.4167 -75.7500 360° North 193 222 5,000 -60 Descending Philadelphia TRACON
04:39PM 39.4667 -75.7333 14° North 188 216 5,000  Level Philadelphia TRACON
04:40PM 39.5167 -75.7333 360° North 188 216 5,000  Level Philadelphia TRACON
04:41PM 39.5833 -75.7167 11° North 191 220 5,000  Level Philadelphia TRACON
04:42PM 39.6333 -75.7000 14° North 187 215 5,000  Level Philadelphia TRACON
04:43PM 39.6833 -75.6833 14° North 188 216 5,000  Level Philadelphia TRACON
04:44PM 39.7333 -75.6667 14° North 184 212 5,000  Level Philadelphia TRACON
04:45PM 39.7833 -75.6667 360° North 185 213 5,000  Level Philadelphia TRACON
04:46PM 39.8333 -75.6500 14° North 185 213 5,000  Level Philadelphia TRACON
04:47PM 39.8833 -75.6500 360° North 189 217 5,100  Climbing Philadelphia TRACON
04:48PM 39.9333 -75.6333 14° North 187 215 5,000 -60 Descending Philadelphia TRACON
04:49PM 39.9833 -75.6167 14° North 186 214 5,000  Level Philadelphia TRACON
04:50PM 40.0333 -75.6167 360° North 187 215 5,000  Level Philadelphia TRACON
04:52PM 40.1045 -75.6334 350° North  Level FlightAware Approximate
04:59PM 40.4459 -75.6130 41° Northeast  Level FlightAware Approximate
05:00PM 40.4852 -75.5688 41° Northeast  Level FlightAware Approximate
05:01PM 40.5248 -75.5252 37° Northeast  Level FlightAware Approximate
05:02PM 40.5659 -75.4841 37° Northeast  Level FlightAware Approximate
05:03PM 40.5667 -75.4833 37° Northeast  Level FlightAware Approximate
05:04PM 40.5703 -75.4883 37° Northeast  Level Estimated
05:05PM 40.5667 -75.4833 37° Northeast  Level FlightAware Approximate
05:06PM 40.5703 -75.4883 37° Northeast  Level Estimated
05:07PM 40.5667 -75.4833 37° Northeast  Level FlightAware Approximate
05:08PM 40.5703 -75.4883 37° Northeast  Level Estimated
05:09PM 40.5667 -75.4833 37° Northeast  Level FlightAware Approximate
05:10PM 40.5703 -75.4883 37° Northeast  Level Estimated
05:11PM 40.5667 -75.4833 37° Northeast  Level FlightAware Approximate
05:12PM 40.5703 -75.4883 37° Northeast  Level Estimated
05:13PM 40.5667 -75.4833 37° Northeast  Level FlightAware Approximate
05:14PM 40.5703 -75.4883 37° Northeast  Level Estimated
05:15PM 40.5667 -75.4833 37° Northeast  Level FlightAware Approximate
05:16PM 40.5703 -75.4883 37° Northeast  Level Estimated
05:17PM 40.5667 -75.4833 37° Northeast  Level FlightAware Approximate
05:18PM 40.5703 -75.4883 37° Northeast  Level Estimated
05:19PM 40.5667 -75.4833 37° Northeast  Level FlightAware Approximate
05:20PM 40.5703 -75.4883 37° Northeast  Level Estimated
05:21PM 40.5667 -75.4833 37° Northeast  Level FlightAware Approximate
05:22PM 40.5703 -75.4883 37° Northeast  Level Estimated